createdAt,value
2023-05-19T00:01:49.448Z,99789.25
2023-05-19T00:04:23.179Z,99781.72
2023-05-19T00:06:56.833Z,99784.88
2023-05-19T00:09:30.216Z,99786.47
2023-05-19T00:12:03.524Z,99789.72
2023-05-19T00:14:38.353Z,99780.56
2023-05-19T00:17:11.851Z,99781.34
2023-05-19T00:19:45.064Z,99780.97
2023-05-19T00:22:17.978Z,99785.38
2023-05-19T00:24:50.774Z,99780.59
2023-05-19T00:27:23.645Z,99774.63
2023-05-19T00:29:57.970Z,99772.22
2023-05-19T00:32:31.217Z,99774.66
2023-05-19T00:35:04.332Z,99775.81
2023-05-19T00:37:37.508Z,99773.03
2023-05-19T00:40:11.564Z,99766.66
2023-05-19T00:42:44.429Z,99765.88
2023-05-19T00:45:18.954Z,99771.84
2023-05-19T00:47:51.838Z,99763.84
2023-05-19T00:50:25.242Z,99770.22
2023-05-19T00:52:58.319Z,99756.75
2023-05-19T00:55:34.403Z,99771.03
2023-05-19T00:58:08.202Z,99768.25
2023-05-19T01:00:43.458Z,99766.25
2023-05-19T01:03:20.870Z,99759.13
2023-05-19T01:05:54.006Z,99755.91
2023-05-19T01:08:27.131Z,99758.31
2023-05-19T01:11:00.691Z,99756.72
2023-05-19T01:13:34.372Z,99754.72
2023-05-19T01:16:13.676Z,99746.38
2023-05-19T01:18:56.185Z,99750.75
2023-05-19T01:21:58.237Z,99755.03
2023-05-19T01:25:04.421Z,99749.88
2023-05-19T01:28:14.820Z,99751.09
2023-05-19T01:30:54.695Z,99755.09
2023-05-19T01:33:29.619Z,99755.78
2023-05-19T01:36:05.186Z,99760.16
2023-05-19T01:38:40.126Z,99759.38
2023-05-19T01:41:13.682Z,99759.81
2023-05-19T01:43:46.879Z,99753.38
2023-05-19T01:46:22.347Z,99753.38
2023-05-19T01:48:56.065Z,99755.38
2023-05-19T01:51:29.120Z,99753.44
2023-05-19T01:54:01.875Z,99754.28
2023-05-19T01:56:47.877Z,99751.81
2023-05-19T01:59:33.750Z,99753.44
2023-05-19T02:02:18.468Z,99742.72
2023-05-19T02:04:58.648Z,99750.31
2023-05-19T02:07:38.931Z,99744.75
2023-05-19T02:10:15.651Z,99745.59
2023-05-19T02:12:54.553Z,99744.75
2023-05-19T02:15:35.496Z,99745.19
2023-05-19T02:18:11.525Z,99740.41
2023-05-19T02:20:44.989Z,99738.44
2023-05-19T02:23:17.873Z,99738.47
2023-05-19T02:25:50.774Z,99751.56
2023-05-19T02:28:23.648Z,99746.78
2023-05-19T02:30:56.534Z,99751.16
2023-05-19T02:33:31.558Z,99744.81
2023-05-19T02:36:04.682Z,99752.34
2023-05-19T02:38:37.746Z,99746.00
2023-05-19T02:41:10.720Z,99742.81
2023-05-19T02:43:43.653Z,99742.81
2023-05-19T02:46:16.472Z,99744.81
2023-05-19T02:48:50.725Z,99738.06
2023-05-19T02:51:23.659Z,99744.00
2023-05-19T02:53:56.792Z,99745.59
2023-05-19T02:56:29.698Z,99731.28
2023-05-19T02:59:02.609Z,99741.22
2023-05-19T03:01:37.996Z,99738.03
2023-05-19T03:04:14.005Z,99730.06
2023-05-19T03:06:46.969Z,99736.03
2023-05-19T03:09:19.826Z,99730.09
2023-05-19T03:11:52.668Z,99738.00
2023-05-19T03:14:25.532Z,99728.50
2023-05-19T03:16:59.902Z,99725.69
2023-05-19T03:19:34.881Z,99727.69
2023-05-19T03:22:07.723Z,99732.09
2023-05-19T03:24:41.295Z,99730.88
2023-05-19T03:27:14.878Z,99734.84
2023-05-19T03:29:47.843Z,99735.25
2023-05-19T03:32:21.053Z,99735.66
2023-05-19T03:34:55.512Z,99735.25
2023-05-19T03:37:28.625Z,99732.84
2023-05-19T03:40:02.396Z,99737.63
2023-05-19T03:42:36.092Z,99732.47
2023-05-19T03:45:09.804Z,99726.47
2023-05-19T03:47:42.649Z,99731.66
2023-05-19T03:50:31.811Z,99733.97
2023-05-19T03:53:18.748Z,99733.63
2023-05-19T03:55:51.710Z,99734.31
2023-05-19T03:58:24.544Z,99743.13
2023-05-19T04:00:59.668Z,99741.59
2023-05-19T04:03:32.557Z,99742.78
2023-05-19T04:06:07.478Z,99749.13
2023-05-19T04:08:40.585Z,99744.69
2023-05-19T04:11:14.034Z,99756.59
2023-05-19T04:13:47.214Z,99751.16
2023-05-19T04:16:20.152Z,99746.38
2023-05-19T04:18:53.914Z,99743.59
2023-05-19T04:21:28.562Z,99739.22
2023-05-19T04:24:01.795Z,99755.53
2023-05-19T04:26:35.098Z,99751.97
2023-05-19T04:29:08.830Z,99741.22
2023-05-19T04:31:42.147Z,99745.22
2023-05-19T04:34:15.205Z,99743.22
2023-05-19T04:36:51.647Z,99751.19
2023-05-19T04:39:29.620Z,99748.34
2023-05-19T04:42:02.729Z,99759.50
2023-05-19T04:44:38.087Z,99761.84
2023-05-19T04:47:11.435Z,99763.34
2023-05-19T04:49:44.673Z,99752.22
2023-05-19T04:52:21.848Z,99764.56
2023-05-19T04:54:54.902Z,99759.69
2023-05-19T04:57:29.437Z,99756.41
2023-05-19T05:00:03.317Z,99754.38
2023-05-19T05:02:43.708Z,99757.59
2023-05-19T05:05:16.813Z,99752.28
2023-05-19T05:07:54.162Z,99749.13
2023-05-19T05:10:28.981Z,99751.47
2023-05-19T05:13:02.813Z,99741.88
2023-05-19T05:15:36.644Z,99741.00
2023-05-19T05:18:10.365Z,99750.91
2023-05-19T05:20:44.211Z,99745.63
2023-05-19T05:23:20.328Z,99754.34
2023-05-19T05:25:55.268Z,99747.13
2023-05-19T05:28:28.434Z,99750.72
2023-05-19T05:31:01.326Z,99747.59
2023-05-19T05:33:34.405Z,99742.19
2023-05-19T05:36:08.111Z,99742.25
2023-05-19T05:38:42.564Z,99749.31
2023-05-19T05:41:16.770Z,99746.84
2023-05-19T05:43:50.002Z,99738.25
2023-05-19T05:46:24.386Z,99737.34
2023-05-19T05:48:57.783Z,99740.19
2023-05-19T05:51:32.981Z,99737.81
2023-05-19T05:54:09.104Z,99738.47
2023-05-19T05:56:46.812Z,99739.25
2023-05-19T05:59:20.414Z,99740.50
2023-05-19T06:01:53.781Z,99739.75
2023-05-19T06:04:27.142Z,99737.38
2023-05-19T06:07:01.900Z,99733.41
2023-05-19T06:09:40.621Z,99737.44
2023-05-19T06:12:15.088Z,99732.94
2023-05-19T06:14:52.961Z,99733.75
2023-05-19T06:17:54.779Z,99732.31
2023-05-19T06:20:27.790Z,99738.72
2023-05-19T06:23:02.015Z,99737.84
2023-05-19T06:25:36.870Z,99737.88
2023-05-19T06:28:09.709Z,99743.00
2023-05-19T06:30:43.270Z,99735.03
2023-05-19T06:33:29.104Z,99734.47
2023-05-19T06:36:02.496Z,99738.41
2023-05-19T06:38:36.294Z,99729.94
2023-05-19T06:41:10.552Z,99737.97
2023-05-19T06:43:43.578Z,99737.19
2023-05-19T06:46:20.027Z,99734.59
2023-05-19T06:48:53.287Z,99733.09
2023-05-19T06:51:29.538Z,99730.75
2023-05-19T06:54:03.183Z,99733.03
2023-05-19T06:56:37.573Z,99729.41
2023-05-19T06:59:10.884Z,99720.91
2023-05-19T07:01:44.533Z,99729.88
2023-05-19T07:04:17.872Z,99723.19
2023-05-19T07:06:50.975Z,99730.00
2023-05-19T07:09:24.655Z,99726.53
2023-05-19T07:11:59.063Z,99719.03
2023-05-19T07:14:31.852Z,99730.13
2023-05-19T07:17:05.159Z,99728.19
2023-05-19T07:19:39.282Z,99725.53
2023-05-19T07:22:12.493Z,99726.06
2023-05-19T07:24:45.394Z,99717.16
2023-05-19T07:27:19.767Z,99723.22
2023-05-19T07:29:52.671Z,99724.09
2023-05-19T07:32:25.982Z,99715.09
2023-05-19T07:34:58.851Z,99713.31
2023-05-19T07:37:31.751Z,99716.91
2023-05-19T07:40:05.132Z,99712.25
2023-05-19T07:42:39.308Z,99718.34
2023-05-19T07:45:12.853Z,99709.22
2023-05-19T07:47:45.786Z,99712.16
2023-05-19T07:50:18.719Z,99702.63
2023-05-19T07:52:51.600Z,99711.44
2023-05-19T07:55:24.747Z,99708.34
2023-05-19T07:57:58.939Z,99709.13
2023-05-19T08:00:32.456Z,99705.00
2023-05-19T08:03:06.000Z,99712.16
2023-05-19T08:05:39.322Z,99692.38
2023-05-19T08:08:12.925Z,99690.28
2023-05-19T08:10:45.885Z,99691.03
2023-05-19T08:13:20.096Z,99691.78
2023-05-19T08:15:55.063Z,99687.09
2023-05-19T08:18:28.251Z,99680.47
2023-05-19T08:21:01.755Z,99669.34
2023-05-19T08:23:34.839Z,99672.69
2023-05-19T08:26:08.023Z,99672.31
2023-05-19T08:28:42.197Z,99678.38
2023-05-19T08:31:15.095Z,99670.94
2023-05-19T08:33:48.083Z,99670.94
2023-05-19T08:36:22.062Z,99672.25
2023-05-19T08:38:54.909Z,99673.47
2023-05-19T08:41:27.936Z,99667.47
2023-05-19T08:44:02.264Z,99683.16
2023-05-19T08:46:36.224Z,99683.34
2023-05-19T08:49:13.237Z,99668.81
2023-05-19T08:51:55.955Z,99663.72
2023-05-19T08:54:35.248Z,99661.56
2023-05-19T08:57:10.220Z,99660.81
2023-05-19T08:59:45.049Z,99657.38
2023-05-19T09:02:18.927Z,99646.50
2023-05-19T09:04:52.141Z,99644.75
2023-05-19T09:07:26.629Z,99635.81
2023-05-19T09:10:00.981Z,99648.13
2023-05-19T09:12:34.811Z,99630.94
2023-05-19T09:15:10.884Z,99628.00
2023-05-19T09:17:44.982Z,99624.91
2023-05-19T09:20:18.323Z,99628.22
2023-05-19T09:22:52.668Z,99636.03
2023-05-19T09:25:25.640Z,99627.38
2023-05-19T09:27:58.638Z,99624.69
2023-05-19T09:30:34.545Z,99626.28
2023-05-19T09:33:10.030Z,99629.38
2023-05-19T09:35:48.148Z,99630.69
2023-05-19T09:38:21.460Z,99634.72
2023-05-19T09:40:54.516Z,99635.34
2023-05-19T09:43:29.628Z,99627.38
2023-05-19T09:46:05.670Z,99627.31
2023-05-19T09:48:38.903Z,99624.50
2023-05-19T09:51:11.878Z,99638.31
2023-05-19T09:53:48.010Z,99635.28
2023-05-19T09:56:23.741Z,99630.75
2023-05-19T09:58:56.776Z,99636.06
2023-05-19T10:01:33.668Z,99629.69
2023-05-19T10:04:07.002Z,99631.25
2023-05-19T10:06:40.769Z,99629.81
2023-05-19T10:09:14.194Z,99629.03
2023-05-19T10:11:47.182Z,99639.72
2023-05-19T10:14:21.236Z,99627.34
2023-05-19T10:16:57.326Z,99627.28
2023-05-19T10:19:30.504Z,99629.56
2023-05-19T10:22:03.410Z,99624.97
2023-05-19T10:24:36.304Z,99627.44
2023-05-19T10:27:12.875Z,99616.31
2023-05-19T10:29:51.009Z,99618.34
2023-05-19T10:32:29.895Z,99619.34
2023-05-19T10:35:29.424Z,99615.19
2023-05-19T10:38:13.889Z,99611.06
2023-05-19T10:40:58.646Z,99609.25
2023-05-19T10:43:42.917Z,99607.84
2023-05-19T10:46:16.655Z,99609.06
2023-05-19T10:48:51.092Z,99601.06
2023-05-19T10:51:31.377Z,99602.63
2023-05-19T10:54:10.990Z,99600.09
2023-05-19T10:56:47.782Z,99599.44
2023-05-19T10:59:32.910Z,99601.56
2023-05-19T11:02:06.621Z,99603.59
2023-05-19T11:04:52.402Z,99607.41
2023-05-19T11:07:25.810Z,99602.78
2023-05-19T11:09:58.739Z,99600.50
2023-05-19T11:12:42.075Z,99591.78
2023-05-19T11:15:16.391Z,99603.41
2023-05-19T11:17:50.255Z,99592.63
2023-05-19T11:20:26.068Z,99584.75
2023-05-19T11:23:05.651Z,99579.44
2023-05-19T11:25:46.963Z,99578.63
2023-05-19T11:28:25.665Z,99583.81
2023-05-19T11:31:00.192Z,99571.66
2023-05-19T11:33:33.615Z,99580.97
2023-05-19T11:36:09.393Z,99567.25
2023-05-19T11:38:43.571Z,99573.88
2023-05-19T11:41:18.889Z,99567.75
2023-05-19T11:43:53.565Z,99569.66
2023-05-19T11:46:26.412Z,99563.16
2023-05-19T11:48:59.410Z,99566.25
2023-05-19T11:51:34.204Z,99560.69
2023-05-19T11:54:07.491Z,99556.16
2023-05-19T11:56:44.410Z,99551.56
2023-05-19T11:59:17.281Z,99553.84
2023-05-19T12:01:50.692Z,99556.94
2023-05-19T12:04:23.646Z,99548.34
2023-05-19T12:06:58.303Z,99540.97
2023-05-19T12:09:31.371Z,99535.28
2023-05-19T12:12:04.725Z,99544.91
2023-05-19T12:14:38.871Z,99542.94
2023-05-19T12:17:13.691Z,99539.06
2023-05-19T12:19:48.935Z,99537.22
2023-05-19T12:22:26.881Z,99531.03
2023-05-19T12:25:12.237Z,99536.16
2023-05-19T12:27:47.682Z,99539.47
2023-05-19T12:30:27.844Z,99526.72
2023-05-19T12:33:01.649Z,99523.88
2023-05-19T12:35:40.242Z,99526.53
2023-05-19T12:38:17.263Z,99512.94
2023-05-19T12:40:53.899Z,99516.28
2023-05-19T12:43:31.834Z,99523.31
2023-05-19T12:46:13.785Z,99514.59
2023-05-19T12:48:48.259Z,99511.53
2023-05-19T12:51:24.375Z,99508.13
2023-05-19T12:53:59.577Z,99504.72
2023-05-19T12:56:53.790Z,99496.06
2023-05-19T12:59:38.368Z,99494.00
2023-05-19T13:02:15.744Z,99499.09
2023-05-19T13:04:49.476Z,99497.19
2023-05-19T13:07:23.028Z,99496.03
2023-05-19T13:09:57.946Z,99496.53
2023-05-19T13:12:37.951Z,99493.38
2023-05-19T13:15:12.638Z,99490.66
2023-05-19T13:17:46.605Z,99484.06
2023-05-19T13:20:19.723Z,99493.22
2023-05-19T13:22:53.572Z,99492.69
2023-05-19T13:25:28.320Z,99488.22
2023-05-19T13:28:04.912Z,99480.25
2023-05-19T13:30:39.545Z,99475.97
2023-05-19T13:33:12.663Z,99478.22
2023-05-19T13:35:45.562Z,99471.72
2023-05-19T13:38:18.404Z,99469.66
2023-05-19T13:40:52.784Z,99471.13
2023-05-19T13:43:25.633Z,99470.03
2023-05-19T13:45:58.855Z,99466.03
2023-05-19T13:48:31.656Z,99461.41
2023-05-19T13:51:04.435Z,99466.66
2023-05-19T13:53:37.509Z,99454.84
2023-05-19T13:56:11.717Z,99460.53
2023-05-19T13:58:44.723Z,99458.19
2023-05-19T14:01:17.771Z,99459.44
2023-05-19T14:03:50.789Z,99460.31
2023-05-19T14:06:23.810Z,99456.78
2023-05-19T14:08:56.603Z,99460.53
2023-05-19T14:11:31.107Z,99446.09
2023-05-19T14:14:04.093Z,99442.66
2023-05-19T14:16:38.190Z,99439.13
2023-05-19T14:19:11.295Z,99440.75
2023-05-19T14:21:44.266Z,99423.13
2023-05-19T14:24:17.062Z,99424.75
2023-05-19T14:26:52.652Z,99428.78
2023-05-19T14:29:25.658Z,99431.59
2023-05-19T14:31:58.530Z,99426.72
2023-05-19T14:34:31.440Z,99427.03
2023-05-19T14:37:04.243Z,99420.06
2023-05-19T14:39:37.100Z,99418.22
2023-05-19T14:42:11.820Z,99417.81
2023-05-19T14:44:44.796Z,99422.72
2023-05-19T14:47:17.831Z,99424.59
2023-05-19T14:49:51.025Z,99426.25
2023-05-19T14:52:24.305Z,99419.22
2023-05-19T14:54:57.212Z,99418.34
2023-05-19T14:57:31.550Z,99418.47
2023-05-19T15:00:04.856Z,99412.06
2023-05-19T15:02:37.768Z,99414.66
2023-05-19T15:05:11.720Z,99404.19
2023-05-19T15:07:44.567Z,99410.13
2023-05-19T15:10:17.529Z,99409.25
2023-05-19T15:12:51.798Z,99404.03
2023-05-19T15:15:24.528Z,99396.75
2023-05-19T15:17:57.360Z,99392.66
2023-05-19T15:20:30.212Z,99394.47
2023-05-19T15:23:03.201Z,99394.97
2023-05-19T15:25:35.992Z,99393.59
2023-05-19T15:28:10.231Z,99394.56
2023-05-19T15:30:43.352Z,99380.34
2023-05-19T15:33:16.443Z,99387.13
2023-05-19T15:35:51.746Z,99390.84
2023-05-19T15:38:24.646Z,99387.56
2023-05-19T15:40:57.510Z,99387.97
2023-05-19T15:43:31.725Z,99387.66
2023-05-19T15:46:05.262Z,99387.84
2023-05-19T15:48:38.321Z,99384.34
2023-05-19T15:51:11.515Z,99383.50
2023-05-19T15:53:44.408Z,99386.16
2023-05-19T15:56:17.518Z,99392.19
2023-05-19T15:58:51.991Z,99382.56
2023-05-19T16:01:25.129Z,99387.53
2023-05-19T16:03:58.250Z,99393.13
2023-05-19T16:06:31.737Z,99374.00
2023-05-19T16:09:04.744Z,99379.94
2023-05-19T16:11:37.579Z,99370.19
2023-05-19T16:14:11.856Z,99364.69
2023-05-19T16:16:44.860Z,99364.09
2023-05-19T16:19:17.903Z,99365.69
2023-05-19T16:21:50.748Z,99366.25
2023-05-19T16:24:23.497Z,99364.88
2023-05-19T16:26:56.508Z,99372.50
2023-05-19T16:29:30.775Z,99359.81
2023-05-19T16:32:03.782Z,99353.75
2023-05-19T16:34:36.805Z,99359.50
2023-05-19T16:37:09.627Z,99358.03
2023-05-19T16:39:43.816Z,99357.63
2023-05-19T16:42:16.596Z,99350.84
2023-05-19T16:44:50.723Z,99352.69
2023-05-19T16:47:23.816Z,99350.19
2023-05-19T16:49:56.756Z,99356.03
2023-05-19T16:52:29.677Z,99343.38
2023-05-19T16:55:02.586Z,99353.00
2023-05-19T16:57:35.481Z,99345.47
2023-05-19T17:00:11.534Z,99351.50
2023-05-19T17:02:44.440Z,99338.28
2023-05-19T17:05:17.629Z,99340.63
2023-05-19T17:07:50.635Z,99334.47
2023-05-19T17:10:23.610Z,99335.88
2023-05-19T17:12:56.492Z,99333.22
2023-05-19T17:15:30.819Z,99323.94
2023-05-19T17:18:05.618Z,99339.00
2023-05-19T17:20:38.689Z,99338.44
2023-05-19T17:23:11.729Z,99341.53
2023-05-19T17:25:44.594Z,99332.41
2023-05-19T17:28:17.638Z,99339.56
2023-05-19T17:30:51.833Z,99330.72
2023-05-19T17:33:24.976Z,99334.81
2023-05-19T17:35:57.931Z,99337.94
2023-05-19T17:38:32.204Z,99334.31
2023-05-19T17:41:09.725Z,99337.03
2023-05-19T17:43:43.041Z,99339.31
2023-05-19T17:46:17.222Z,99338.63
2023-05-19T17:48:50.186Z,99344.00
2023-05-19T17:51:23.609Z,99340.38
2023-05-19T17:53:57.142Z,99359.78
2023-05-19T17:56:34.170Z,99361.75
2023-05-19T17:59:07.417Z,99356.09
2023-05-19T18:01:42.537Z,99353.66
2023-05-19T18:04:16.339Z,99358.03
2023-05-19T18:06:52.404Z,99367.13
2023-05-19T18:09:29.017Z,99360.25
2023-05-19T18:12:02.621Z,99367.19
2023-05-19T18:14:35.449Z,99363.09
2023-05-19T18:17:09.669Z,99371.47
2023-05-19T18:19:42.467Z,99369.31
2023-05-19T18:22:15.354Z,99368.31
2023-05-19T18:24:48.308Z,99371.72
2023-05-19T18:27:21.108Z,99364.56
2023-05-19T18:29:54.018Z,99367.22
2023-05-19T18:32:28.345Z,99358.75
2023-05-19T18:35:01.182Z,99373.56
2023-05-19T18:37:34.059Z,99360.88
2023-05-19T18:40:08.960Z,99362.19
2023-05-19T18:42:41.834Z,99362.25
2023-05-19T18:45:15.031Z,99355.97
2023-05-19T18:47:49.369Z,99362.50
2023-05-19T18:50:22.579Z,99363.00
2023-05-19T18:52:55.506Z,99366.66
2023-05-19T18:55:28.771Z,99370.31
2023-05-19T18:58:02.433Z,99360.28
2023-05-19T19:00:36.513Z,99365.13
2023-05-19T19:03:11.894Z,99361.22
2023-05-19T19:05:44.864Z,99360.59
2023-05-19T19:08:17.712Z,99364.84
2023-05-19T19:10:51.779Z,99369.88
2023-05-19T19:13:24.731Z,99372.97
2023-05-19T19:15:57.603Z,99372.84
2023-05-19T19:18:31.933Z,99379.25
2023-05-19T19:21:05.752Z,99382.25
2023-05-19T19:23:39.179Z,99386.78
2023-05-19T19:26:14.382Z,99376.72
2023-05-19T19:28:47.761Z,99382.25
2023-05-19T19:31:21.165Z,99392.91
2023-05-19T19:33:58.944Z,99395.69
2023-05-19T19:36:33.995Z,99390.66
2023-05-19T19:39:07.505Z,99388.88
2023-05-19T19:41:41.096Z,99384.69
2023-05-19T19:44:14.721Z,99398.75
2023-05-19T19:46:47.952Z,99395.13
2023-05-19T19:49:22.532Z,99395.00
2023-05-19T19:51:57.273Z,99401.06
2023-05-19T19:54:33.652Z,99404.81
2023-05-19T19:57:07.234Z,99404.94
2023-05-19T19:59:40.584Z,99399.38
2023-05-19T20:02:14.176Z,99403.41
2023-05-19T20:04:48.866Z,99411.56
2023-05-19T20:07:23.384Z,99416.41
2023-05-19T20:09:57.098Z,99412.00
2023-05-19T20:12:33.892Z,99407.28
2023-05-19T20:15:08.646Z,99401.44
2023-05-19T20:17:41.798Z,99405.47
2023-05-19T20:20:16.934Z,99411.53
2023-05-19T20:22:49.892Z,99403.56
2023-05-19T20:25:22.993Z,99417.00
2023-05-19T20:27:56.098Z,99408.22
2023-05-19T20:30:29.279Z,99417.16
2023-05-19T20:33:02.636Z,99414.72
2023-05-19T20:35:37.337Z,99416.66
2023-05-19T20:38:10.731Z,99412.22
2023-05-19T20:40:43.710Z,99404.88
2023-05-19T20:43:16.582Z,99408.84
2023-05-19T20:45:49.580Z,99409.81
2023-05-19T20:48:22.585Z,99416.91
2023-05-19T20:50:57.440Z,99413.13
2023-05-19T20:53:30.509Z,99408.31
2023-05-19T20:56:05.228Z,99409.41
2023-05-19T20:58:38.124Z,99420.41
2023-05-19T21:01:10.978Z,99421.47
2023-05-19T21:03:44.090Z,99414.56
2023-05-19T21:06:18.611Z,99417.47
2023-05-19T21:08:51.649Z,99415.34
2023-05-19T21:11:24.555Z,99427.16
2023-05-19T21:13:57.462Z,99421.00
2023-05-19T21:16:30.821Z,99425.00
2023-05-19T21:19:03.878Z,99421.63
2023-05-19T21:21:42.671Z,99416.75
2023-05-19T21:24:16.191Z,99417.84
2023-05-19T21:26:49.876Z,99417.56
2023-05-19T21:29:22.844Z,99411.94
2023-05-19T21:31:59.165Z,99413.41
2023-05-19T21:34:36.459Z,99411.34
2023-05-19T21:37:10.808Z,99420.88
2023-05-19T21:39:43.773Z,99418.03
2023-05-19T21:42:16.708Z,99411.66
2023-05-19T21:44:49.572Z,99412.88
2023-05-19T21:47:22.461Z,99402.91
2023-05-19T21:49:55.374Z,99410.84
2023-05-19T21:52:30.324Z,99409.06
2023-05-19T21:55:03.314Z,99412.34
2023-05-19T21:57:36.339Z,99409.06
2023-05-19T22:00:13.020Z,99413.25
2023-05-19T22:02:46.406Z,99422.28
2023-05-19T22:05:19.663Z,99420.72
2023-05-19T22:07:53.992Z,99419.22
2023-05-19T22:10:26.858Z,99415.53
2023-05-19T22:12:59.920Z,99425.31
2023-05-19T22:15:32.752Z,99418.97
2023-05-19T22:18:05.742Z,99418.41
2023-05-19T22:20:38.824Z,99417.72
2023-05-19T22:23:13.435Z,99416.41
2023-05-19T22:25:46.357Z,99424.06
2023-05-19T22:28:19.326Z,99419.66
2023-05-19T22:30:52.199Z,99429.66
2023-05-19T22:33:25.132Z,99427.53
2023-05-19T22:35:58.281Z,99421.47
2023-05-19T22:38:32.522Z,99420.84
2023-05-19T22:41:05.537Z,99414.78
2023-05-19T22:43:38.462Z,99413.44
2023-05-19T22:46:11.369Z,99414.75
2023-05-19T22:48:44.425Z,99410.75
2023-05-19T22:51:17.433Z,99405.50
2023-05-19T22:53:51.656Z,99412.13
2023-05-19T22:56:24.735Z,99410.13
2023-05-19T22:58:57.825Z,99407.94
2023-05-19T23:01:30.696Z,99411.72
2023-05-19T23:04:03.997Z,99407.22
2023-05-19T23:06:36.993Z,99409.66
2023-05-19T23:09:11.541Z,99410.59
2023-05-19T23:11:44.509Z,99409.91
2023-05-19T23:14:18.562Z,99400.00
2023-05-19T23:16:51.533Z,99401.47
2023-05-19T23:19:24.684Z,99398.22
2023-05-19T23:21:57.604Z,99392.91
2023-05-19T23:24:31.920Z,99395.59
2023-05-19T23:27:05.309Z,99392.91
2023-05-19T23:29:38.292Z,99395.91
2023-05-19T23:32:11.398Z,99395.47
2023-05-19T23:34:44.380Z,99392.06
2023-05-19T23:37:17.255Z,99389.59
2023-05-19T23:39:51.519Z,99387.63
2023-05-19T23:42:24.597Z,99385.28
2023-05-19T23:44:57.510Z,99384.16
2023-05-19T23:47:30.828Z,99378.63
2023-05-19T23:50:03.756Z,99384.88
2023-05-19T23:52:36.716Z,99379.00
2023-05-19T23:55:12.728Z,99385.03
2023-05-19T23:57:45.628Z,99381.97
